createdAt,value
2019-03-15T00:00:37.629Z,16.30
2019-03-15T00:03:07.086Z,9.35
2019-03-15T00:05:36.149Z,7.37
2019-03-15T00:08:07.227Z,7.10
2019-03-15T00:10:36.147Z,7.00
2019-03-15T00:13:05.389Z,7.47
2019-03-15T00:15:34.544Z,11.15
2019-03-15T00:18:04.599Z,10.03
2019-03-15T00:20:33.674Z,8.00
2019-03-15T00:23:03.047Z,12.85
2019-03-15T00:25:32.239Z,13.90
2019-03-15T00:28:01.220Z,9.85
2019-03-15T00:30:30.333Z,10.43
2019-03-15T00:32:59.500Z,16.85
2019-03-15T00:38:23.938Z,9.30
2019-03-15T00:40:54.159Z,9.10
2019-03-15T00:43:23.193Z,10.50
2019-03-15T00:45:52.611Z,7.70
2019-03-15T00:48:23.500Z,8.93
2019-03-15T00:50:55.421Z,8.45
2019-03-15T00:53:25.903Z,7.78
2019-03-15T00:55:55.900Z,8.35
2019-03-15T00:58:25.272Z,9.63
2019-03-15T01:00:57.104Z,9.60
2019-03-15T01:03:26.400Z,9.53
2019-03-15T01:05:55.267Z,10.68
2019-03-15T01:08:24.339Z,10.53
2019-03-15T01:10:53.366Z,10.70
2019-03-15T01:13:28.786Z,11.33
2019-03-15T01:15:57.723Z,11.12
2019-03-15T01:18:26.851Z,11.10
2019-03-15T01:20:56.119Z,10.93
2019-03-15T01:23:25.185Z,10.13
2019-03-15T01:25:54.496Z,10.80
2019-03-15T01:28:27.201Z,11.05
2019-03-15T01:30:58.990Z,11.30
2019-03-15T01:33:28.495Z,16.23
2019-03-15T01:35:57.537Z,14.15
2019-03-15T01:38:29.206Z,14.28
2019-03-15T01:40:58.494Z,15.28
2019-03-15T01:43:27.539Z,13.28
2019-03-15T01:45:58.777Z,12.75
2019-03-15T01:48:29.142Z,14.20
2019-03-15T01:50:58.208Z,14.15
2019-03-15T01:53:27.524Z,13.03
2019-03-15T01:55:56.868Z,14.55
2019-03-15T01:58:26.266Z,14.55
2019-03-15T02:00:55.475Z,14.83
2019-03-15T02:03:24.602Z,15.23
2019-03-15T02:05:55.193Z,15.50
2019-03-15T02:08:24.538Z,15.98
2019-03-15T02:10:53.732Z,15.98
2019-03-15T02:13:25.121Z,16.90
2019-03-15T02:15:54.249Z,16.32
2019-03-15T02:18:23.360Z,16.93
2019-03-15T02:20:53.298Z,17.95
2019-03-15T02:23:25.841Z,19.05
2019-03-15T02:29:00.585Z,18.12
2019-03-15T02:31:33.750Z,19.25
2019-03-15T02:34:08.828Z,18.52
2019-03-15T02:36:47.128Z,20.85
2019-03-15T02:39:21.877Z,23.15
2019-03-15T02:41:59.136Z,41.53
2019-03-15T02:44:32.330Z,36.45
2019-03-15T02:47:01.579Z,54.33
2019-03-15T02:49:32.884Z,85.22
2019-03-15T02:52:02.453Z,99.03
2019-03-15T02:54:31.368Z,118.25
2019-03-15T02:57:05.198Z,57.33
2019-03-15T02:59:35.223Z,53.33
2019-03-15T03:02:06.231Z,25.40
2019-03-15T03:04:35.089Z,47.15
2019-03-15T03:07:08.014Z,36.20
2019-03-15T03:09:36.827Z,23.62
2019-03-15T03:12:07.497Z,19.02
2019-03-15T03:14:36.638Z,24.00
2019-03-15T03:17:09.584Z,19.12
2019-03-15T03:19:45.587Z,25.20
2019-03-15T03:22:18.438Z,17.42
2019-03-15T03:24:54.089Z,22.15
2019-03-15T03:27:26.668Z,17.75
2019-03-15T03:30:00.870Z,19.30
2019-03-15T03:32:34.360Z,19.80
2019-03-15T03:37:36.082Z,16.10
2019-03-15T03:40:08.380Z,18.17
2019-03-15T03:42:41.976Z,16.57
2019-03-15T03:47:39.836Z,16.10
2019-03-15T03:50:10.857Z,16.05
2019-03-15T03:52:41.732Z,16.27
2019-03-15T03:55:12.185Z,16.95
2019-03-15T03:57:44.661Z,18.15
2019-03-15T04:00:21.575Z,17.65
2019-03-15T04:02:53.425Z,19.02
2019-03-15T04:05:24.746Z,19.30
2019-03-15T04:07:54.246Z,18.07
2019-03-15T04:10:28.043Z,18.75
2019-03-15T04:12:59.165Z,18.42
2019-03-15T04:15:28.705Z,18.48
2019-03-15T04:18:01.858Z,19.65
2019-03-15T04:20:31.202Z,19.48
2019-03-15T04:23:02.402Z,20.43
2019-03-15T04:25:40.348Z,19.07
2019-03-15T04:28:08.411Z,18.37
2019-03-15T04:30:41.414Z,18.02
2019-03-15T04:33:10.532Z,18.32
2019-03-15T04:35:39.737Z,18.77
2019-03-15T04:38:11.783Z,18.98
2019-03-15T04:40:43.416Z,18.60
2019-03-15T04:43:13.551Z,18.12
2019-03-15T04:45:43.211Z,18.12
2019-03-15T04:48:14.761Z,16.82
2019-03-15T04:50:43.995Z,19.07
2019-03-15T04:53:13.225Z,20.25
2019-03-15T04:55:42.380Z,18.17
2019-03-15T04:58:14.288Z,17.65
2019-03-15T05:00:47.151Z,17.87
2019-03-15T05:03:17.031Z,20.20
2019-03-15T05:05:46.296Z,24.32
2019-03-15T05:08:16.680Z,28.55
2019-03-15T05:10:45.601Z,47.48
2019-03-15T05:13:17.064Z,31.12
2019-03-15T05:15:46.438Z,26.25
2019-03-15T05:18:15.880Z,19.98
2019-03-15T05:20:50.478Z,17.98
2019-03-15T05:23:20.143Z,17.32
2019-03-15T05:25:50.366Z,18.65
2019-03-15T05:28:19.431Z,19.45
2019-03-15T05:30:56.099Z,18.98
2019-03-15T05:33:24.921Z,18.55
2019-03-15T05:36:03.783Z,18.98
2019-03-15T05:38:35.321Z,17.98
2019-03-15T05:41:12.466Z,17.35
2019-03-15T05:44:04.540Z,19.02
2019-03-15T05:46:36.195Z,18.42
2019-03-15T05:49:19.084Z,17.80
2019-03-15T05:51:51.303Z,20.62
2019-03-15T05:54:26.928Z,22.80
2019-03-15T05:57:05.137Z,21.55
2019-03-15T05:59:42.275Z,18.82
2019-03-15T06:02:11.211Z,19.00
2019-03-15T06:04:40.105Z,18.67
2019-03-15T06:07:13.417Z,19.23
2019-03-15T06:09:49.273Z,19.00
2019-03-15T06:12:18.241Z,22.07
2019-03-15T06:14:48.159Z,21.77
2019-03-15T06:17:17.352Z,23.02
2019-03-15T06:19:46.289Z,29.50
2019-03-15T06:22:15.237Z,29.98
2019-03-15T06:24:45.250Z,25.32
2019-03-15T06:27:17.976Z,24.35
2019-03-15T06:29:46.937Z,20.77
2019-03-15T06:32:15.810Z,24.60
2019-03-15T06:34:44.665Z,18.70
2019-03-15T06:37:17.584Z,19.23
2019-03-15T06:39:46.381Z,21.20
2019-03-15T06:42:15.281Z,24.30
2019-03-15T06:44:57.032Z,20.15
2019-03-15T06:47:16.746Z,19.82
2019-03-15T06:49:45.724Z,26.82
2019-03-15T06:52:16.149Z,23.57
2019-03-15T06:54:46.574Z,24.85
2019-03-15T06:57:15.466Z,25.90
2019-03-15T06:59:46.814Z,27.80
2019-03-15T07:02:19.529Z,24.52
2019-03-15T07:04:51.424Z,24.00
2019-03-15T07:07:25.410Z,22.25
2019-03-15T07:09:56.929Z,21.12
2019-03-15T07:12:35.858Z,21.37
2019-03-15T07:15:08.260Z,23.67
2019-03-15T07:17:37.204Z,23.85
2019-03-15T07:20:09.877Z,22.93
2019-03-15T07:22:41.328Z,21.65
2019-03-15T07:25:10.720Z,20.77
2019-03-15T07:27:43.267Z,17.27
2019-03-15T07:30:23.461Z,18.37
2019-03-15T07:32:56.483Z,17.40
2019-03-15T07:35:27.713Z,20.37
2019-03-15T07:38:02.424Z,23.20
2019-03-15T07:43:02.027Z,19.60
2019-03-15T07:45:28.393Z,21.48
2019-03-15T07:47:59.933Z,18.32
2019-03-15T07:50:28.842Z,14.33
2019-03-15T07:53:00.268Z,17.20
2019-03-15T07:55:29.267Z,15.58
2019-03-15T07:58:00.812Z,17.67
2019-03-15T08:00:29.700Z,26.35
2019-03-15T08:03:05.683Z,20.62
2019-03-15T08:05:34.983Z,14.83
2019-03-15T08:08:03.847Z,14.55
2019-03-15T08:10:36.303Z,16.25
2019-03-15T08:13:05.212Z,15.30
2019-03-15T08:15:34.204Z,18.50
2019-03-15T08:18:03.095Z,17.23
2019-03-15T08:20:32.089Z,15.72
2019-03-15T08:23:04.865Z,15.25
2019-03-15T08:25:37.357Z,16.60
2019-03-15T08:28:09.593Z,20.48
2019-03-15T08:30:37.681Z,17.62
2019-03-15T08:33:11.913Z,20.05
2019-03-15T08:35:40.887Z,32.35
2019-03-15T08:38:09.882Z,26.85
2019-03-15T08:40:43.274Z,19.50
2019-03-15T08:43:14.894Z,17.60
2019-03-15T08:45:43.818Z,16.67
2019-03-15T08:48:15.269Z,17.45
2019-03-15T08:50:44.160Z,19.55
2019-03-15T08:53:13.152Z,17.23
2019-03-15T08:55:44.518Z,16.97
2019-03-15T08:58:16.639Z,17.90
2019-03-15T09:00:43.917Z,17.55
2019-03-15T09:03:12.810Z,17.27
2019-03-15T09:05:41.802Z,17.60
2019-03-15T09:08:10.690Z,18.40
2019-03-15T09:10:39.683Z,19.15
2019-03-15T09:13:08.675Z,16.73
2019-03-15T09:15:40.056Z,20.35
2019-03-15T09:18:09.019Z,18.67
2019-03-15T09:20:40.485Z,21.85
2019-03-15T09:23:14.081Z,22.30
2019-03-15T09:25:49.585Z,19.52
2019-03-15T09:28:16.269Z,18.90
2019-03-15T09:30:45.346Z,18.80
2019-03-15T09:33:15.183Z,17.60
2019-03-15T09:35:44.160Z,20.17
2019-03-15T09:38:16.314Z,22.80
2019-03-15T09:40:49.097Z,23.67
2019-03-15T09:43:18.098Z,26.90
2019-03-15T09:45:46.978Z,24.90
2019-03-15T09:48:17.508Z,21.62
2019-03-15T09:50:51.756Z,18.85
2019-03-15T09:53:21.123Z,19.67
2019-03-15T09:55:50.014Z,24.60
2019-03-15T09:58:18.905Z,24.10
2019-03-15T10:00:50.561Z,23.98
2019-03-15T10:03:22.703Z,24.10
2019-03-15T10:05:57.080Z,25.30
2019-03-15T10:08:25.837Z,20.55
2019-03-15T10:10:55.586Z,20.72
2019-03-15T10:13:27.000Z,20.60
2019-03-15T10:15:55.972Z,21.12
2019-03-15T10:18:24.977Z,20.05
2019-03-15T10:20:53.865Z,22.75
2019-03-15T10:23:22.858Z,25.92
2019-03-15T10:25:51.850Z,37.98
2019-03-15T10:28:20.738Z,27.30
2019-03-15T10:30:49.731Z,20.90
2019-03-15T10:33:23.160Z,21.82
2019-03-15T10:35:52.119Z,23.15
2019-03-15T10:38:21.009Z,46.92
2019-03-15T10:40:56.460Z,28.20
2019-03-15T10:43:25.383Z,29.18
2019-03-15T10:46:06.100Z,21.60
2019-03-15T10:48:32.031Z,38.48
2019-03-15T10:51:00.923Z,22.32
2019-03-15T10:53:33.501Z,38.88
2019-03-15T10:56:04.334Z,33.50
2019-03-15T10:58:36.717Z,22.77
2019-03-15T11:01:09.691Z,21.87
2019-03-15T11:03:42.593Z,22.95
2019-03-15T11:06:11.463Z,22.73
2019-03-15T11:08:40.464Z,28.17
2019-03-15T11:11:12.025Z,23.80
2019-03-15T11:13:40.899Z,26.37
2019-03-15T11:16:21.771Z,30.97
2019-03-15T11:18:55.098Z,29.15
2019-03-15T11:21:26.671Z,34.75
2019-03-15T11:23:55.610Z,35.20
2019-03-15T11:26:24.407Z,31.45
2019-03-15T11:28:56.818Z,24.90
2019-03-15T11:31:28.278Z,28.12
2019-03-15T11:34:00.038Z,31.15
2019-03-15T11:36:27.635Z,47.13
2019-03-15T11:38:59.087Z,32.65
2019-03-15T11:41:29.921Z,39.55
2019-03-15T11:44:00.350Z,33.30
2019-03-15T11:46:35.790Z,28.73
2019-03-15T11:49:04.683Z,30.15
2019-03-15T11:51:33.573Z,45.12
2019-03-15T11:54:06.719Z,30.20
2019-03-15T11:56:41.181Z,35.88
2019-03-15T11:59:11.095Z,37.55
2019-03-15T12:01:41.012Z,34.58
2019-03-15T12:04:09.928Z,28.42
2019-03-15T12:06:38.832Z,51.42
2019-03-15T12:09:11.457Z,25.55
2019-03-15T12:11:40.361Z,24.77
2019-03-15T12:14:09.356Z,25.20
2019-03-15T12:16:39.189Z,25.00
2019-03-15T12:19:08.153Z,24.15
2019-03-15T12:21:37.043Z,27.30
2019-03-15T12:24:05.814Z,27.35
2019-03-15T12:26:40.112Z,23.77
2019-03-15T12:29:07.810Z,24.37
2019-03-15T12:31:40.290Z,26.23
2019-03-15T12:34:09.177Z,24.07
2019-03-15T12:36:44.186Z,23.70
2019-03-15T12:39:17.754Z,23.25
2019-03-15T12:41:49.257Z,32.23
2019-03-15T12:44:21.836Z,23.05
2019-03-15T12:46:55.043Z,22.90
2019-03-15T12:49:25.713Z,25.52
2019-03-15T12:51:54.750Z,25.90
2019-03-15T12:54:25.894Z,26.93
2019-03-15T12:56:58.675Z,24.50
2019-03-15T12:59:28.077Z,25.23
2019-03-15T13:01:58.708Z,23.70
2019-03-15T13:04:27.619Z,28.23
2019-03-15T13:06:56.485Z,26.05
2019-03-15T13:09:27.952Z,24.57
2019-03-15T13:11:56.930Z,23.12
2019-03-15T13:14:25.922Z,24.27
2019-03-15T13:16:54.812Z,25.95
2019-03-15T13:19:28.476Z,24.32
2019-03-15T13:21:58.211Z,24.60
2019-03-15T13:24:26.969Z,24.20
2019-03-15T13:27:06.999Z,26.00
2019-03-15T13:29:28.468Z,24.15
2019-03-15T13:31:59.928Z,21.73
2019-03-15T13:34:29.021Z,28.25
2019-03-15T13:37:01.475Z,26.17
2019-03-15T13:39:34.093Z,23.73
2019-03-15T13:42:03.065Z,24.30
2019-03-15T13:44:36.891Z,26.90
2019-03-15T13:47:05.865Z,24.72
2019-03-15T13:49:34.778Z,25.15
2019-03-15T13:52:06.116Z,24.02
2019-03-15T13:54:35.003Z,28.95
2019-03-15T13:57:03.889Z,26.65
2019-03-15T13:59:35.433Z,33.55
2019-03-15T14:02:07.848Z,32.78
2019-03-15T14:04:37.003Z,29.42
2019-03-15T14:07:05.891Z,27.60
2019-03-15T14:09:36.645Z,23.50
2019-03-15T14:12:09.524Z,22.65
2019-03-15T14:14:42.392Z,25.70
2019-03-15T14:17:20.091Z,28.40
2019-03-15T14:19:50.005Z,26.05
2019-03-15T14:22:18.895Z,26.95
2019-03-15T14:24:47.782Z,27.73
2019-03-15T14:27:17.637Z,27.42
2019-03-15T14:29:46.693Z,41.08
2019-03-15T14:32:16.602Z,28.02
2019-03-15T14:34:45.410Z,31.07
2019-03-15T14:37:15.535Z,20.30
2019-03-15T14:39:44.641Z,23.98
2019-03-15T14:42:13.778Z,25.68
2019-03-15T14:44:42.693Z,29.02
2019-03-15T14:47:15.315Z,32.53
2019-03-15T14:49:47.640Z,45.80
2019-03-15T14:52:16.529Z,23.30
2019-03-15T14:54:45.419Z,22.30
2019-03-15T14:57:14.307Z,23.67
2019-03-15T14:59:43.197Z,23.55
2019-03-15T15:02:12.191Z,25.70
2019-03-15T15:04:41.084Z,25.23
2019-03-15T15:07:10.077Z,24.85
2019-03-15T15:09:43.605Z,28.12
2019-03-15T15:12:10.411Z,29.60
2019-03-15T15:14:39.404Z,32.67
2019-03-15T15:17:11.128Z,33.35
2019-03-15T15:19:39.600Z,30.60
2019-03-15T15:22:08.378Z,34.20
2019-03-15T15:24:41.217Z,34.80
2019-03-15T15:27:14.299Z,25.77
2019-03-15T15:29:43.189Z,21.97
2019-03-15T15:32:12.255Z,23.98
2019-03-15T15:34:41.174Z,23.27
2019-03-15T15:37:10.066Z,25.82
2019-03-15T15:39:39.062Z,24.45
2019-03-15T15:42:07.946Z,23.22
2019-03-15T15:44:43.631Z,22.05
2019-03-15T15:47:14.327Z,21.52
2019-03-15T15:49:43.218Z,19.85
2019-03-15T15:52:15.587Z,20.27
2019-03-15T15:54:47.591Z,20.25
2019-03-15T15:57:17.372Z,19.65
2019-03-15T15:59:48.442Z,18.45
2019-03-15T16:02:18.514Z,16.60
2019-03-15T16:04:47.518Z,16.07
2019-03-15T16:07:16.506Z,22.02
2019-03-15T16:09:45.400Z,22.98
2019-03-15T16:12:15.805Z,19.98
2019-03-15T16:14:44.711Z,19.25
2019-03-15T16:17:14.756Z,16.73
2019-03-15T16:19:45.578Z,19.35
2019-03-15T16:22:14.556Z,18.35
2019-03-15T16:24:43.547Z,18.95
2019-03-15T16:27:13.462Z,21.77
2019-03-15T16:29:42.357Z,21.33
2019-03-15T16:32:11.250Z,23.60
2019-03-15T16:34:41.135Z,22.70
2019-03-15T16:37:10.255Z,20.65
2019-03-15T16:39:39.354Z,26.97
2019-03-15T16:42:13.559Z,25.43
2019-03-15T16:44:42.451Z,25.68
2019-03-15T16:47:11.444Z,28.15
2019-03-15T16:49:40.439Z,24.40
2019-03-15T16:52:09.327Z,20.85
2019-03-15T16:54:38.321Z,19.75
2019-03-15T16:57:07.204Z,18.23
2019-03-15T16:59:36.098Z,17.95
2019-03-15T17:02:04.996Z,18.85
2019-03-15T17:04:33.887Z,18.62
2019-03-15T17:07:09.306Z,20.60
2019-03-15T17:09:38.121Z,24.80
2019-03-15T17:12:14.967Z,19.45
2019-03-15T17:14:44.319Z,17.77
2019-03-15T17:17:13.285Z,19.65
2019-03-15T17:19:42.269Z,22.73
2019-03-15T17:22:11.159Z,24.23
2019-03-15T17:24:40.049Z,28.07
2019-03-15T17:27:08.940Z,32.63
2019-03-15T17:29:37.829Z,33.75
2019-03-15T17:32:07.845Z,30.25
2019-03-15T17:34:36.835Z,26.57
2019-03-15T17:37:11.314Z,23.70
2019-03-15T17:39:36.301Z,29.55
2019-03-15T17:42:06.247Z,28.62
2019-03-15T17:44:35.213Z,31.02
2019-03-15T17:47:07.607Z,28.57
2019-03-15T17:49:36.526Z,36.45
2019-03-15T17:52:07.342Z,28.95
2019-03-15T17:54:36.255Z,123.47
2019-03-15T17:57:06.167Z,45.45
2019-03-15T17:59:35.060Z,27.82
2019-03-15T18:02:04.971Z,20.27
2019-03-15T18:04:36.417Z,19.07
2019-03-15T18:07:13.091Z,20.88
2019-03-15T18:09:42.976Z,19.87
2019-03-15T18:12:14.555Z,21.40
2019-03-15T18:14:44.999Z,22.58
2019-03-15T18:17:16.740Z,19.85
2019-03-15T18:19:44.400Z,22.37
2019-03-15T18:22:14.005Z,25.12
2019-03-15T18:24:47.701Z,29.23
2019-03-15T18:29:44.676Z,22.75
2019-03-15T18:32:16.224Z,27.30
2019-03-15T18:34:45.452Z,25.17
2019-03-15T18:37:15.406Z,26.87
2019-03-15T18:39:44.585Z,25.00
2019-03-15T18:42:13.524Z,22.90
2019-03-15T18:44:42.516Z,21.17
2019-03-15T18:47:11.404Z,21.70
2019-03-15T18:49:40.293Z,22.87
2019-03-15T18:52:09.184Z,21.33
2019-03-15T18:54:40.941Z,19.95
2019-03-15T18:57:10.958Z,23.00
2019-03-15T18:59:40.601Z,21.85
2019-03-15T19:02:13.262Z,21.77
2019-03-15T19:04:42.712Z,20.12
2019-03-15T19:07:11.637Z,20.40
2019-03-15T19:09:40.528Z,20.27
2019-03-15T19:12:09.604Z,20.92
2019-03-15T19:14:38.612Z,20.17
2019-03-15T19:17:07.504Z,19.30
2019-03-15T19:19:36.499Z,22.02
2019-03-15T19:22:06.413Z,25.30
2019-03-15T19:24:35.404Z,27.52
2019-03-15T19:27:04.294Z,22.62
2019-03-15T19:29:33.183Z,22.73
2019-03-15T19:32:02.077Z,20.62
2019-03-15T19:34:34.765Z,21.23
2019-03-15T19:37:03.743Z,21.87
2019-03-15T19:39:35.198Z,24.25
2019-03-15T19:42:04.084Z,23.25
2019-03-15T19:44:33.078Z,21.45
2019-03-15T19:47:02.991Z,22.35
2019-03-15T19:49:32.106Z,19.75
2019-03-15T19:52:03.591Z,21.68
2019-03-15T19:54:32.449Z,18.92
2019-03-15T19:57:01.313Z,19.20
2019-03-15T19:59:30.128Z,19.52
2019-03-15T20:02:01.925Z,19.32
2019-03-15T20:04:41.592Z,17.73
2019-03-15T20:07:13.606Z,19.30
2019-03-15T20:09:45.024Z,19.40
2019-03-15T20:12:14.007Z,20.30
2019-03-15T20:14:46.376Z,21.68
2019-03-15T20:17:17.676Z,21.20
2019-03-15T20:19:47.232Z,21.12
2019-03-15T20:22:16.039Z,21.52
2019-03-15T20:24:44.928Z,21.02
2019-03-15T20:27:16.583Z,19.05
2019-03-15T20:29:45.458Z,19.17
2019-03-15T20:32:20.794Z,18.90
2019-03-15T20:34:53.784Z,19.00
2019-03-15T20:37:23.488Z,18.37
2019-03-15T20:39:52.386Z,18.62
2019-03-15T20:42:25.470Z,21.20
2019-03-15T20:44:55.280Z,19.23
2019-03-15T20:47:24.273Z,20.00
2019-03-15T20:49:53.162Z,19.62
2019-03-15T20:52:24.621Z,21.85
2019-03-15T20:54:54.446Z,21.27
2019-03-15T20:57:27.137Z,22.65
2019-03-15T21:00:00.189Z,21.47
2019-03-15T21:02:36.964Z,23.02
2019-03-15T21:05:08.048Z,23.83
2019-03-15T21:07:36.897Z,23.45
2019-03-15T21:10:08.537Z,23.47
2019-03-15T21:12:39.899Z,26.50
2019-03-15T21:15:11.184Z,25.48
2019-03-15T21:17:41.230Z,28.17
2019-03-15T21:20:22.393Z,27.02
2019-03-15T21:22:49.794Z,25.97
2019-03-15T21:25:18.693Z,24.65
2019-03-15T21:27:54.572Z,26.52
2019-03-15T21:30:26.091Z,30.17
2019-03-15T21:32:54.982Z,34.53
2019-03-15T21:35:23.975Z,29.48
2019-03-15T21:38:00.240Z,25.20
2019-03-15T21:40:33.071Z,26.05
2019-03-15T21:43:02.736Z,27.85
2019-03-15T21:45:34.827Z,26.42
2019-03-15T21:48:07.031Z,26.33
2019-03-15T21:50:40.185Z,26.25
2019-03-15T21:53:20.149Z,26.52
2019-03-15T21:55:49.354Z,26.02
2019-03-15T21:58:18.558Z,30.00
2019-03-15T22:01:01.381Z,28.57
2019-03-15T22:03:18.333Z,26.55
2019-03-15T22:05:51.985Z,25.48
2019-03-15T22:10:56.333Z,24.00
2019-03-15T22:13:25.201Z,24.95
2019-03-15T22:15:58.675Z,25.12
2019-03-15T22:18:30.070Z,24.70
2019-03-15T22:20:59.088Z,25.65
2019-03-15T22:23:28.999Z,28.05
2019-03-15T22:25:57.989Z,25.95
2019-03-15T22:28:27.269Z,27.45
2019-03-15T22:31:00.879Z,25.57
2019-03-15T22:36:00.213Z,26.73
2019-03-15T22:38:35.873Z,26.33
2019-03-15T22:41:06.953Z,30.50
2019-03-15T22:43:36.217Z,27.02
2019-03-15T22:46:05.970Z,30.95
2019-03-15T22:48:43.322Z,28.85
2019-03-15T22:51:12.524Z,33.70
2019-03-15T22:53:45.962Z,32.33
2019-03-15T22:56:16.528Z,31.02
2019-03-15T22:58:45.378Z,35.52
2019-03-15T23:01:14.297Z,36.17
2019-03-15T23:03:43.186Z,32.73
2019-03-15T23:06:13.305Z,36.28
2019-03-15T23:08:42.194Z,32.63
2019-03-15T23:11:12.210Z,31.62
2019-03-15T23:13:41.100Z,31.65
2019-03-15T23:16:10.095Z,30.48
2019-03-15T23:18:38.982Z,31.27
2019-03-15T23:21:07.977Z,29.40
2019-03-15T23:23:36.865Z,28.73
2019-03-15T23:26:05.862Z,29.77
2019-03-15T23:28:35.677Z,30.35
2019-03-15T23:31:04.560Z,28.25
2019-03-15T23:33:33.449Z,29.07
2019-03-15T23:36:06.435Z,28.50
2019-03-15T23:38:35.343Z,31.45
2019-03-15T23:41:05.243Z,29.87
2019-03-15T23:43:34.239Z,27.60
2019-03-15T23:46:07.846Z,28.50
2019-03-15T23:51:06.022Z,31.00
2019-03-15T23:53:35.015Z,29.70
2019-03-15T23:56:05.169Z,29.32
2019-03-15T23:58:34.023Z,29.87
